Pires Coelho — CUPM6 — position and weather

sailwx.info

Track history (hours):
 
Tides and Currents Weather Stations Pressure Air Temp Water Temp Dewpoint Dewpoint Depression Visibility Wind Speed Wind Dir Waves Ship Positions

Pires Coelho

Last reported at 2015-Jul-29 16:33 UTC. Time now 2015-Jul-30 02:04 UTC.
Position N 36°49' W 008°03'.

Length 27 m.

Type: Ship. MMSI: 263236000.

Date/timePositionNaut miles runAvg speedWind from/ knotsBaromVisibWave heightAir tempDewpointWater temp
2015-Jul-29 16:33N 36°49' W 008°03'3 2.9
2015-Jul-29 15:33N 36°49' W 007°59'2 1.7
2015-Jul-29 14:33N 36°51' W 007°58'3 3.1
2015-Jul-29 13:33N 36°51' W 008°01'3 2.9
2015-Jul-29 12:22N 36°50' W 008°06'3 3.0
2015-Jul-29 11:32N 36°49' W 008°09'3 3.0
2015-Jul-29 10:33N 36°49' W 008°12'2 1.8
2015-Jul-29 09:33N 36°49' W 008°10'6 2.9
2015-Jul-29 07:32N 36°51' W 008°03'14 1.8
2015-Jul-28 23:32N 37°01' W 007°51'17 3.5
2015-Jul-28 18:33N 36°48' W 008°06'3 3.0
2015-Jul-28 17:32N 36°47' W 008°09'2 2.3
2015-Jul-28 16:33N 36°49' W 008°11'3 2.9
2015-Jul-28 15:22N 36°50' W 008°07'3 3.1
2015-Jul-28 14:33N 36°51' W 008°04'3 3.0
2015-Jul-28 13:33N 36°51' W 008°00'3 2.2
2015-Jul-28 12:16N 36°52' W 007°57'6 2.3
2015-Jul-28 09:32N 36°52' W 008°05'2 2.0
2015-Jul-28 08:34N 36°51' W 008°04'3 3.0
2015-Jul-28 07:33N 36°51' W 007°60'3 0.1
2015-Jul-27 00:29N 36°51' W 007°57'9 9.7
2015-Jul-26 23:33N 36°59' W 007°52'6 1.4
2015-Jul-26 19:18N 36°56' W 007°45'7 8.3
2015-Jul-26 18:27N 36°54' W 007°37'7 3.2
2015-Jul-26 16:08N 36°47' W 007°35'2 2.9
2015-Jul-26 15:27N 36°45' W 007°34'3 2.9
2015-Jul-26 14:33N 36°45' W 007°30'3 2.9
2015-Jul-26 13:33N 36°44' W 007°27'18 1.3
2015-Jul-26 00:27N 36°45' W 007°49'3 3.3
2015-Jul-25 23:33N 36°46' W 007°52'2 0.7
2015-Jul-25 21:23N 36°46' W 007°54'7 0.3
2015-Jul-24 19:30N 36°49' W 008°02'5 2.5
2015-Jul-24 17:32N 36°49' W 008°08'2 2.2
2015-Jul-24 16:33N 36°49' W 008°11'4 2.9
2015-Jul-24 15:11N 36°49' W 008°16'2 2.9
2015-Jul-24 14:32N 36°49' W 008°18'2 1.8
2015-Jul-24 13:28N 36°49' W 008°16'3 2.8
2015-Jul-24 12:34N 36°49' W 008°13'3 2.9
2015-Jul-24 11:34N 36°49' W 008°09'2 1.9
2015-Jul-24 10:21N 36°50' W 008°06'2 2.9
2015-Jul-24 09:33N 36°51' W 008°04'6 2.9
2015-Jul-24 07:32N 36°52' W 007°57'1 0.1
2015-Jul-23 17:33N 36°52' W 007°58'3 2.9
2015-Jul-23 16:29N 36°51' W 008°01'3 2.9
2015-Jul-23 15:33N 36°51' W 008°05'3 2.9
2015-Jul-23 14:32N 36°49' W 008°08'2 2.3
2015-Jul-23 13:34N 36°49' W 008°11'4 3.0
2015-Jul-23 12:18N 36°49' W 008°16'6 3.0
2015-Jul-23 10:25N 36°49' W 008°23'2 1.9
2015-Jul-23 09:33N 36°50' W 008°25'3 2.6
2015-Jul-23 08:30N 36°49' W 008°21'3 3.1
2015-Jul-23 07:33N 36°49' W 008°18'3 3.1
2015-Jul-23 06:33N 36°49' W 008°14'3 2.9
2015-Jul-23 05:33N 36°49' W 008°10'7 7.3
2015-Jul-23 04:33N 36°46' W 008°01'4 3.6
2015-Jul-23 03:33N 36°45' W 007°57'3 2.8
2015-Jul-23 02:33N 36°46' W 007°54'3 2.9
2015-Jul-23 01:32N 36°47' W 007°51'10 0.3
2015-Jul-21 19:33N 36°55' W 007°43'21 0.8
2015-Jul-20 19:16N 36°48' W 008°07'2 2.7
2015-Jul-20 18:22N 36°47' W 008°10'4 4.9
2015-Jul-20 17:27N 36°47' W 008°16'8 2.9
2015-Jul-20 14:34N 36°49' W 008°26'4 3.1
2015-Jul-20 13:24N 36°49' W 008°31'6 6.7
2015-Jul-20 12:33N 36°55' W 008°30'3 2.8
2015-Jul-20 11:33N 36°53' W 008°32'3 3.0
2015-Jul-20 10:33N 36°51' W 008°35'3 1.5
2015-Jul-20 08:16N 36°47' W 008°33'2 2.9
2015-Jul-20 07:34N 36°47' W 008°31'3 2.8
2015-Jul-20 06:34N 36°47' W 008°27'3 3.0
2015-Jul-20 05:28N 36°47' W 008°23'8 5.9
2015-Jul-20 04:07N 36°49' W 008°13'7 9.1
2015-Jul-20 03:19N 36°52' W 008°05'  
Track history (hours):
 
Tides and Currents Weather Stations Pressure Air Temp Water Temp Dewpoint Dewpoint Depression Visibility Wind Speed Wind Dir Waves Ship Positions

Pires Coelho

Last reported at 2015-Jul-29 16:33 UTC. Time now 2015-Jul-30 02:04 UTC.
Position N 36°49' W 008°03'.

Length 27 m.

Type: Ship. MMSI: 263236000.

Date/timePositionNaut miles runAvg speedWind from/ knotsBaromVisibWave heightAir tempDewpointWater temp
2015-Jul-29 16:33N 36°49' W 008°03'3 2.9
2015-Jul-29 15:33N 36°49' W 007°59'2 1.7
2015-Jul-29 14:33N 36°51' W 007°58'3 3.1
2015-Jul-29 13:33N 36°51' W 008°01'3 2.9
2015-Jul-29 12:22N 36°50' W 008°06'3 3.0
2015-Jul-29 11:32N 36°49' W 008°09'3 3.0
2015-Jul-29 10:33N 36°49' W 008°12'2 1.8
2015-Jul-29 09:33N 36°49' W 008°10'6 2.9
2015-Jul-29 07:32N 36°51' W 008°03'14 1.8
2015-Jul-28 23:32N 37°01' W 007°51'17 3.5
2015-Jul-28 18:33N 36°48' W 008°06'3 3.0
2015-Jul-28 17:32N 36°47' W 008°09'2 2.3
2015-Jul-28 16:33N 36°49' W 008°11'3 2.9
2015-Jul-28 15:22N 36°50' W 008°07'3 3.1
2015-Jul-28 14:33N 36°51' W 008°04'3 3.0
2015-Jul-28 13:33N 36°51' W 008°00'3 2.2
2015-Jul-28 12:16N 36°52' W 007°57'6 2.3
2015-Jul-28 09:32N 36°52' W 008°05'2 2.0
2015-Jul-28 08:34N 36°51' W 008°04'3 3.0
2015-Jul-28 07:33N 36°51' W 007°60'3 0.1
2015-Jul-27 00:29N 36°51' W 007°57'9 9.7
2015-Jul-26 23:33N 36°59' W 007°52'6 1.4
2015-Jul-26 19:18N 36°56' W 007°45'7 8.3
2015-Jul-26 18:27N 36°54' W 007°37'7 3.2
2015-Jul-26 16:08N 36°47' W 007°35'2 2.9
2015-Jul-26 15:27N 36°45' W 007°34'3 2.9
2015-Jul-26 14:33N 36°45' W 007°30'3 2.9
2015-Jul-26 13:33N 36°44' W 007°27'18 1.3
2015-Jul-26 00:27N 36°45' W 007°49'3 3.3
2015-Jul-25 23:33N 36°46' W 007°52'2 0.7
2015-Jul-25 21:23N 36°46' W 007°54'7 0.3
2015-Jul-24 19:30N 36°49' W 008°02'5 2.5
2015-Jul-24 17:32N 36°49' W 008°08'2 2.2
2015-Jul-24 16:33N 36°49' W 008°11'4 2.9
2015-Jul-24 15:11N 36°49' W 008°16'2 2.9
2015-Jul-24 14:32N 36°49' W 008°18'2 1.8
2015-Jul-24 13:28N 36°49' W 008°16'3 2.8
2015-Jul-24 12:34N 36°49' W 008°13'3 2.9
2015-Jul-24 11:34N 36°49' W 008°09'2 1.9
2015-Jul-24 10:21N 36°50' W 008°06'2 2.9
2015-Jul-24 09:33N 36°51' W 008°04'6 2.9
2015-Jul-24 07:32N 36°52' W 007°57'1 0.1
2015-Jul-23 17:33N 36°52' W 007°58'3 2.9
2015-Jul-23 16:29N 36°51' W 008°01'3 2.9
2015-Jul-23 15:33N 36°51' W 008°05'3 2.9
2015-Jul-23 14:32N 36°49' W 008°08'2 2.3
2015-Jul-23 13:34N 36°49' W 008°11'4 3.0
2015-Jul-23 12:18N 36°49' W 008°16'6 3.0
2015-Jul-23 10:25N 36°49' W 008°23'2 1.9
2015-Jul-23 09:33N 36°50' W 008°25'3 2.6
2015-Jul-23 08:30N 36°49' W 008°21'3 3.1
2015-Jul-23 07:33N 36°49' W 008°18'3 3.1
2015-Jul-23 06:33N 36°49' W 008°14'3 2.9
2015-Jul-23 05:33N 36°49' W 008°10'7 7.3
2015-Jul-23 04:33N 36°46' W 008°01'4 3.6
2015-Jul-23 03:33N 36°45' W 007°57'3 2.8
2015-Jul-23 02:33N 36°46' W 007°54'3 2.9
2015-Jul-23 01:32N 36°47' W 007°51'10 0.3
2015-Jul-21 19:33N 36°55' W 007°43'21 0.8
2015-Jul-20 19:16N 36°48' W 008°07'2 2.7
2015-Jul-20 18:22N 36°47' W 008°10'4 4.9
2015-Jul-20 17:27N 36°47' W 008°16'8 2.9
2015-Jul-20 14:34N 36°49' W 008°26'4 3.1
2015-Jul-20 13:24N 36°49' W 008°31'6 6.7
2015-Jul-20 12:33N 36°55' W 008°30'3 2.8
2015-Jul-20 11:33N 36°53' W 008°32'3 3.0
2015-Jul-20 10:33N 36°51' W 008°35'3 1.5
2015-Jul-20 08:16N 36°47' W 008°33'2 2.9
2015-Jul-20 07:34N 36°47' W 008°31'3 2.8
2015-Jul-20 06:34N 36°47' W 008°27'3 3.0
2015-Jul-20 05:28N 36°47' W 008°23'8 5.9
2015-Jul-20 04:07N 36°49' W 008°13'7 9.1
2015-Jul-20 03:19N 36°52' W 008°05'  

Dump ship's entire track history